Уфа

Карта отелей и гостиниц, располагающихся рядом с аэропортом Уфа :

Уфа Башкортостан 54° 33' 23.94" N, 55° 52' 30" E
Код аэродрома ИКАО
UWUU
Код аэродрома RU
УВУУ
Координаты
N54.55665° E055.87500°
Превышение над уровнем моря
137
Основная полоса
14R/32L
Курс магнитный
137,9/317,9
Длина основной ВПП
3776
Ширина основной ВПП
60
Покрытие основной ВПП
Твёрдое
Освещение ВПП
Постоянное
Тип: 
Аэродром
Класс аэродрома: 
Международный
Принадлежность: 
ГА
Статус: 
Действующий
Сайт: 
http://www.airportufa.ru/
Страна: 
Россия
Регион: 
Башкортостан
Дополнительная информация: 
Оператор: ОАО «Международный аэропорт «Уфа». Нкр.=(300/500/600)м.
Погода: 

Авиационная погода в Уфе

Регион: 
Погода METAR: 
UWUU 171330Z 34005MPS 320V020 CAVOK 18/M04 Q1019 R32L/0///60 NOSIG
Время наблюдения
2021-04-17T13:30:00Z
Температура C
18.0
Точка росы
-4.0
Направление ветра
340
Скорость ветра (узлы)
10
Метео видимость
6.21
Явления погоды
Условия полета
VFR
Аэропорт подробнее: 

Найти трансфер

С помощью этой формы Вы можете найти трансфер из аэропорта Уфа в город, аэропорт или вокзал:

Карта места

Javascript is required to view this map.

Погода в аэропортах:

Авиационная погода в Сочи

Регион: 
Погода METAR: 
URSS 171330Z 25004MPS 9000 -SHRA SCT007 BKN040CB OVC090 12/11 Q1020 WS ALL RWY R06/290060 R02/290060 NOSIG RMK R02/24005MPS QBB210 MT OBSC QFE764
Время наблюдения
2021-04-17T13:30:00Z
Температура C
12.0
Точка росы
11.0
Направление ветра
250
Скорость ветра (узлы)
8
Метео видимость
5.59
Явления погоды
-SHRA
Условия полета
VFR
Аэропорт подробнее: 

Авиационная погода в Брянске

Регион: 
Погода METAR: 
UUBP 171330Z 19005MPS 4100 -SHRA BKN007CB 07/07 Q1017 R16/290150 TEMPO 20005G10MPS 2100 -TSRA BKN005 BKN015CB RMK QFE744/0993
Время наблюдения
2021-04-17T13:30:00Z
Температура C
7.0
Точка росы
7.0
Направление ветра
190
Скорость ветра (узлы)
10
Метео видимость
2.55
Явления погоды
-SHRA
Условия полета
IFR
Аэропорт подробнее: 

Авиационная погода в Полярном

Регион: 
Погода METAR: 
UERP 171400Z 29006G12MPS 3900 -SHSN BLSN BKN015CB OVC100 M13/M15 Q0992 NOSIG RMK QFE700
Время наблюдения
2021-04-17T14:00:00Z
Температура C
-13.0
Точка росы
-15.0
Направление ветра
290
Скорость ветра (узлы)
12
Метео видимость
2.42
Явления погоды
-SHSN BLSN
Условия полета
IFR
Аэропорт подробнее: 

Авиационная погода в Ботсфьорде

Регион: 
Погода METAR: 
ENBS 161920Z 27037G47KT 9999 VCSH SCT020 SCT041 03/01 Q1023
Время наблюдения
2021-04-16T19:20:00Z
Температура C
3.0
Точка росы
1.0
Направление ветра
270
Скорость ветра (узлы)
37
Метео видимость
6.21
Явления погоды
VCSH
Условия полета
VFR